CheckWX is a tool to help pilots better visualize weather data.  It is not intended as a substitute for an official pre-flight weather briefing.

06:36:16 UTC

KCCU METAR
Red Cliff Pass Airport
Copper Mountain, Colorado, USA
Current

24 mins ago

KCCU 180612Z AUTO 28024KT 10SM BKN010 OVC014 00/M03 A3030 RMK AO2
Observed
Nov-18 @ 06:12 UTC
Wind
  • 280° at 24 KTS
Visibility
10 SM
Flight Rules
MVFR
Cloud Levels
  • Broken at 1,000' AGL
  • Overcast at 1,400' AGL
Temperature
C / 32°F
Dewpoint
-3°C / 27°F
Humidity
80%
Altimeter
30.3" Hg
Pressure
1026.12 hPa
Previous

42 mins ago

KCCU 180554Z AUTO 27025KT 10SM BKN010 OVC014 00/M03 A3030 RMK AO2
Observed
Nov-18 @ 05:54 UTC
Wind
  • 270° at 25 KTS
Visibility
10 SM
Flight Rules
MVFR
Cloud Levels
  • Broken at 1,000' AGL
  • Overcast at 1,400' AGL
Temperature
C / 32°F
Dewpoint
-3°C / 27°F
Humidity
80%
Altimeter
30.3" Hg
Pressure
1026.12 hPa
Previous

1 hour ago

KCCU 180530Z AUTO 28022KT 10SM BKN010 BKN015 OVC022 00/M03 A3031 RMK AO2
Observed
Nov-18 @ 05:30 UTC
Wind
  • 280° at 22 KTS
Visibility
10 SM
Flight Rules
MVFR
Cloud Levels
  • Broken at 1,000' AGL
  • Broken at 1,500' AGL
  • Overcast at 2,200' AGL
Temperature
C / 32°F
Dewpoint
-3°C / 27°F
Humidity
80%
Altimeter
30.31" Hg
Pressure
1026.42 hPa